createdAt,value
2019-04-04T00:00:29.464Z,13.39
2019-04-04T00:02:55.430Z,13.37
2019-04-04T00:05:21.561Z,13.32
2019-04-04T00:07:47.560Z,13.39
2019-04-04T00:10:13.410Z,13.42
2019-04-04T00:12:39.639Z,13.48
2019-04-04T00:15:05.786Z,13.45
2019-04-04T00:17:31.641Z,13.43
2019-04-04T00:19:59.011Z,13.45
2019-04-04T00:22:25.493Z,13.37
2019-04-04T00:24:51.466Z,13.39
2019-04-04T00:27:17.474Z,13.35
2019-04-04T00:29:43.400Z,13.28
2019-04-04T00:32:09.364Z,13.31
2019-04-04T00:34:35.270Z,13.34
2019-04-04T00:37:04.394Z,13.29
2019-04-04T00:39:29.331Z,13.29
2019-04-04T00:41:55.366Z,13.30
2019-04-04T00:44:23.082Z,13.32
2019-04-04T00:46:49.132Z,13.31
2019-04-04T00:49:15.151Z,13.26
2019-04-04T00:51:41.267Z,13.18
2019-04-04T00:54:07.204Z,13.25
2019-04-04T00:56:33.317Z,13.33
2019-04-04T00:58:59.274Z,13.35
2019-04-04T01:01:26.895Z,13.32
2019-04-04T01:03:53.078Z,13.30
2019-04-04T01:06:20.545Z,13.40
2019-04-04T01:08:46.623Z,13.31
2019-04-04T01:11:12.463Z,13.17
2019-04-04T01:13:38.752Z,13.23
2019-04-04T01:16:04.960Z,13.20
2019-04-04T01:18:31.020Z,13.25
2019-04-04T01:20:57.108Z,13.18
2019-04-04T01:23:23.042Z,13.22
2019-04-04T01:25:49.008Z,13.28
2019-04-04T01:28:14.985Z,13.22
2019-04-04T01:30:41.707Z,13.22
2019-04-04T01:33:08.738Z,13.27
2019-04-04T01:35:34.843Z,13.38
2019-04-04T01:38:00.800Z,13.31
2019-04-04T01:40:26.618Z,13.22
2019-04-04T01:42:52.528Z,13.20
2019-04-04T01:45:18.370Z,13.37
2019-04-04T01:47:47.643Z,13.28
2019-04-04T01:50:12.417Z,13.29
2019-04-04T01:52:38.475Z,13.22
2019-04-04T01:55:04.536Z,13.26
2019-04-04T01:57:30.515Z,13.14
2019-04-04T01:59:56.472Z,13.19
2019-04-04T02:02:22.492Z,13.24
2019-04-04T02:04:48.675Z,13.20
2019-04-04T02:07:14.650Z,13.23
2019-04-04T02:09:43.255Z,13.20
2019-04-04T02:12:08.637Z,13.20
2019-04-04T02:14:34.575Z,13.19
2019-04-04T02:17:00.455Z,13.26
2019-04-04T02:19:26.302Z,13.29
2019-04-04T02:21:52.133Z,13.29
2019-04-04T02:24:18.157Z,13.36
2019-04-04T02:26:44.092Z,13.22
2019-04-04T02:29:11.153Z,13.29
2019-04-04T02:31:53.772Z,13.34
2019-04-04T02:34:19.621Z,13.29
2019-04-04T02:36:48.775Z,13.42
2019-04-04T02:39:15.388Z,13.31
2019-04-04T02:41:41.411Z,13.34
2019-04-04T02:44:07.442Z,13.34
2019-04-04T02:46:33.546Z,13.32
2019-04-04T02:48:59.624Z,13.35
2019-04-04T02:51:25.483Z,13.31
2019-04-04T02:53:52.953Z,13.13
2019-04-04T02:56:18.958Z,13.13
2019-04-04T02:58:46.338Z,13.16
2019-04-04T03:01:12.939Z,13.19
2019-04-04T03:03:42.054Z,13.10
2019-04-04T03:06:07.007Z,13.08
2019-04-04T03:08:36.726Z,13.00
2019-04-04T03:11:00.991Z,12.76
2019-04-04T03:13:31.141Z,12.73
2019-04-04T03:15:55.053Z,12.63
2019-04-04T03:18:20.936Z,12.67
2019-04-04T03:20:50.373Z,12.43
2019-04-04T03:23:14.506Z,11.98
2019-04-04T03:25:40.445Z,12.05
2019-04-04T03:28:06.256Z,12.10
2019-04-04T03:30:32.099Z,12.14
2019-04-04T03:32:58.125Z,12.16
2019-04-04T03:35:27.987Z,12.21
2019-04-04T03:37:52.161Z,12.02
2019-04-04T03:40:18.270Z,11.67
2019-04-04T03:42:44.854Z,11.91
2019-04-04T03:45:11.065Z,11.70
2019-04-04T03:47:36.988Z,11.56
2019-04-04T03:50:04.812Z,11.38
2019-04-04T03:52:30.753Z,11.41
2019-04-04T03:54:56.722Z,11.28
2019-04-04T03:57:22.519Z,11.41
2019-04-04T03:59:48.359Z,11.49
2019-04-04T04:02:17.831Z,11.06
2019-04-04T04:04:42.111Z,11.06
2019-04-04T04:07:13.841Z,11.31
2019-04-04T04:09:37.134Z,11.65
2019-04-04T04:12:03.002Z,11.92
2019-04-04T04:14:28.847Z,11.81
2019-04-04T04:16:54.834Z,11.80
2019-04-04T04:19:24.028Z,11.56
2019-04-04T04:21:48.446Z,11.77
2019-04-04T04:24:14.412Z,11.80
2019-04-04T04:26:41.874Z,11.95
2019-04-04T04:29:08.128Z,11.72
2019-04-04T04:31:33.972Z,11.72
2019-04-04T04:34:01.697Z,12.14
2019-04-04T04:36:27.678Z,12.27
2019-04-04T04:38:58.848Z,12.16
2019-04-04T04:41:21.504Z,12.17
2019-04-04T04:43:47.415Z,12.28
2019-04-04T04:46:16.848Z,12.40
2019-04-04T04:48:41.036Z,12.53
2019-04-04T04:51:06.869Z,12.40
2019-04-04T04:53:32.780Z,12.37
2019-04-04T04:56:00.588Z,12.31
2019-04-04T04:58:26.445Z,12.62
2019-04-04T05:00:52.435Z,12.36
2019-04-04T05:03:18.266Z,12.33
2019-04-04T05:05:44.121Z,12.33
2019-04-04T05:08:10.690Z,12.32
2019-04-04T05:10:36.584Z,12.40
2019-04-04T05:13:02.568Z,12.57
2019-04-04T05:15:30.428Z,12.60
2019-04-04T05:17:56.429Z,12.55
2019-04-04T05:20:23.126Z,12.39
2019-04-04T05:22:50.507Z,12.31
2019-04-04T05:25:16.382Z,12.44
2019-04-04T05:27:42.222Z,12.39
2019-04-04T05:30:08.709Z,12.45
2019-04-04T05:32:34.629Z,12.51
2019-04-04T05:35:01.171Z,12.52
2019-04-04T05:37:28.720Z,12.57
2019-04-04T05:39:55.411Z,12.68
2019-04-04T05:42:21.459Z,12.60
2019-04-04T05:44:47.319Z,12.76
2019-04-04T05:47:13.137Z,12.60
2019-04-04T05:49:38.979Z,12.63
2019-04-04T05:52:04.962Z,12.63
2019-04-04T05:54:30.802Z,12.66
2019-04-04T05:56:56.685Z,12.42
2019-04-04T05:59:23.920Z,12.47
2019-04-04T06:01:50.388Z,12.45
2019-04-04T06:04:19.121Z,12.49
2019-04-04T06:06:44.251Z,12.51
2019-04-04T06:09:10.126Z,12.63
2019-04-04T06:11:35.975Z,12.69
2019-04-04T06:14:01.930Z,12.67
2019-04-04T06:16:27.744Z,12.60
2019-04-04T06:18:53.648Z,12.70
2019-04-04T06:21:19.486Z,12.75
2019-04-04T06:23:45.424Z,12.89
2019-04-04T06:26:11.302Z,12.77
2019-04-04T06:28:37.126Z,12.75
2019-04-04T06:31:03.196Z,12.67
2019-04-04T06:33:29.088Z,12.72
2019-04-04T06:35:54.933Z,12.78
2019-04-04T06:38:23.092Z,12.68
2019-04-04T06:40:48.812Z,12.61
2019-04-04T06:43:14.756Z,12.64
2019-04-04T06:45:40.770Z,12.55
2019-04-04T06:48:06.724Z,12.58
2019-04-04T06:50:32.608Z,12.40
2019-04-04T06:52:58.454Z,12.29
2019-04-04T06:55:24.310Z,11.96
2019-04-04T06:57:51.350Z,12.19
2019-04-04T07:00:18.578Z,11.97
2019-04-04T07:02:47.161Z,11.58
2019-04-04T07:05:14.311Z,11.64
2019-04-04T07:07:43.090Z,11.71
2019-04-04T07:10:08.811Z,11.93
2019-04-04T07:12:37.859Z,12.00
2019-04-04T07:15:06.280Z,11.60
2019-04-04T07:17:32.128Z,11.52
2019-04-04T07:19:57.977Z,11.63
2019-04-04T07:22:24.949Z,11.71
2019-04-04T07:24:51.407Z,11.65
2019-04-04T07:27:17.235Z,11.75
2019-04-04T07:29:43.526Z,11.15
2019-04-04T07:32:10.168Z,10.94
2019-04-04T07:34:36.194Z,10.93
2019-04-04T07:37:02.306Z,10.92
2019-04-04T07:39:31.994Z,10.92
2019-04-04T07:41:55.879Z,10.91
2019-04-04T07:44:23.291Z,10.89
2019-04-04T07:46:49.585Z,10.82
2019-04-04T07:49:15.528Z,10.76
2019-04-04T07:51:41.478Z,10.75
2019-04-04T07:54:08.036Z,9.91
2019-04-04T07:56:34.114Z,9.76
2019-04-04T07:59:00.113Z,9.85
2019-04-04T08:01:26.007Z,9.67
2019-04-04T08:03:51.880Z,9.73
2019-04-04T08:06:17.822Z,9.87
2019-04-04T08:08:43.651Z,9.90
2019-04-04T08:11:09.710Z,9.94
2019-04-04T08:13:35.574Z,9.78
2019-04-04T08:16:01.508Z,9.81
2019-04-04T08:18:27.476Z,9.86
2019-04-04T08:20:53.312Z,10.09
2019-04-04T08:23:19.291Z,9.95
2019-04-04T08:25:45.138Z,9.93
2019-04-04T08:28:10.980Z,9.92
2019-04-04T08:30:37.069Z,9.95
2019-04-04T08:33:02.908Z,9.95
2019-04-04T08:35:29.928Z,9.94
2019-04-04T08:37:55.924Z,9.95
2019-04-04T08:40:21.924Z,10.00
2019-04-04T08:42:47.823Z,10.00
2019-04-04T08:45:13.840Z,10.02
2019-04-04T08:47:39.669Z,10.12
2019-04-04T08:50:05.962Z,10.19
2019-04-04T08:52:32.018Z,10.39
2019-04-04T08:54:57.905Z,10.39
2019-04-04T08:57:23.977Z,10.30
2019-04-04T08:59:49.829Z,10.44
2019-04-04T09:02:15.740Z,10.60
2019-04-04T09:04:41.624Z,10.57
2019-04-04T09:07:07.497Z,10.58
2019-04-04T09:09:34.795Z,10.41
2019-04-04T09:12:02.091Z,10.42
2019-04-04T09:14:28.018Z,10.74
2019-04-04T09:16:54.128Z,10.63
2019-04-04T09:19:20.111Z,10.72
2019-04-04T09:21:45.937Z,10.76
2019-04-04T09:24:11.929Z,10.96
2019-04-04T09:26:39.587Z,11.02
2019-04-04T09:29:05.443Z,11.02
2019-04-04T09:31:31.310Z,11.07
2019-04-04T09:33:57.170Z,11.01
2019-04-04T09:36:23.043Z,11.06
2019-04-04T09:38:49.008Z,11.13
2019-04-04T09:41:15.102Z,11.20
2019-04-04T09:43:40.931Z,11.19
2019-04-04T09:46:06.830Z,11.15
2019-04-04T09:48:32.779Z,11.19
2019-04-04T09:50:58.590Z,11.22
2019-04-04T09:53:24.616Z,11.12
2019-04-04T09:55:50.746Z,11.22
2019-04-04T09:58:16.659Z,11.19
2019-04-04T10:00:42.959Z,11.13
2019-04-04T10:03:08.884Z,11.07
2019-04-04T10:05:35.173Z,11.04
2019-04-04T10:08:02.169Z,11.03
2019-04-04T10:10:28.238Z,11.09
2019-04-04T10:12:57.621Z,10.92
2019-04-04T10:15:23.668Z,10.88
2019-04-04T10:17:49.659Z,10.83
2019-04-04T10:20:15.653Z,10.71
2019-04-04T10:22:41.686Z,10.72
2019-04-04T10:25:07.735Z,10.56
2019-04-04T10:27:33.837Z,10.56
2019-04-04T10:29:59.931Z,10.56
2019-04-04T10:32:25.809Z,10.59
2019-04-04T10:34:51.819Z,10.70
2019-04-04T10:37:17.715Z,10.81
2019-04-04T10:39:43.598Z,10.95
2019-04-04T10:42:09.407Z,10.93
2019-04-04T10:44:37.067Z,11.11
2019-04-04T10:47:02.926Z,11.18
2019-04-04T10:49:28.930Z,11.27
2019-04-04T10:51:54.702Z,11.24
2019-04-04T10:54:20.492Z,11.14
2019-04-04T10:56:46.205Z,11.00
2019-04-04T10:59:12.054Z,11.12
2019-04-04T11:01:37.903Z,11.04
2019-04-04T11:04:03.723Z,10.98
2019-04-04T11:06:29.429Z,10.91
2019-04-04T11:08:55.368Z,10.97
2019-04-04T11:11:21.099Z,10.69
2019-04-04T11:13:46.851Z,10.93
2019-04-04T11:16:12.574Z,11.02
2019-04-04T11:18:38.532Z,10.88
2019-04-04T11:21:06.177Z,10.75
2019-04-04T11:23:32.033Z,10.55
2019-04-04T11:25:57.928Z,10.54
2019-04-04T11:28:23.669Z,10.56
2019-04-04T11:30:49.541Z,10.59
2019-04-04T11:33:15.467Z,10.58
2019-04-04T11:35:41.251Z,10.52
2019-04-04T11:38:07.718Z,10.60
2019-04-04T11:40:33.508Z,10.56
2019-04-04T11:42:59.302Z,10.49
2019-04-04T11:45:25.034Z,10.48
2019-04-04T11:47:50.848Z,10.46
2019-04-04T11:50:19.361Z,10.50
2019-04-04T11:52:45.224Z,10.61
2019-04-04T11:55:11.065Z,10.67
2019-04-04T11:57:36.953Z,10.49
2019-04-04T12:00:04.322Z,10.52
2019-04-04T12:02:32.608Z,10.45
2019-04-04T12:04:58.022Z,10.46
2019-04-04T12:07:23.986Z,10.59
2019-04-04T12:09:49.766Z,10.45
2019-04-04T12:12:15.472Z,10.45
2019-04-04T12:14:41.230Z,10.42
2019-04-04T12:17:07.018Z,10.42
2019-04-04T12:19:32.769Z,10.53
2019-04-04T12:21:58.540Z,10.65
2019-04-04T12:24:24.349Z,10.70
2019-04-04T12:26:50.464Z,10.79
2019-04-04T12:29:17.654Z,10.75
2019-04-04T12:31:43.430Z,10.58
2019-04-04T12:34:09.471Z,10.55
2019-04-04T12:36:35.270Z,10.37
2019-04-04T12:39:01.157Z,10.45
2019-04-04T12:41:28.229Z,10.49
2019-04-04T12:43:54.176Z,10.43
2019-04-04T12:46:19.953Z,10.54
2019-04-04T12:48:45.809Z,10.62
2019-04-04T12:51:11.605Z,10.67
2019-04-04T12:53:37.336Z,10.64
2019-04-04T12:56:03.537Z,10.53
2019-04-04T12:58:29.521Z,10.60
2019-04-04T13:00:55.331Z,10.43
2019-04-04T13:03:22.405Z,10.41
2019-04-04T13:05:48.650Z,10.33
2019-04-04T13:08:14.448Z,10.52
2019-04-04T13:10:40.303Z,10.57
2019-04-04T13:13:06.220Z,10.77
2019-04-04T13:15:33.696Z,10.63
2019-04-04T13:17:59.558Z,10.84
2019-04-04T13:20:25.535Z,10.78
2019-04-04T13:22:51.459Z,10.79
2019-04-04T13:25:17.341Z,10.64
2019-04-04T13:27:43.219Z,10.66
2019-04-04T13:30:10.418Z,10.68
2019-04-04T13:32:36.381Z,10.67
2019-04-04T13:35:05.735Z,10.57
2019-04-04T13:37:30.765Z,10.49
2019-04-04T13:39:56.637Z,10.54
2019-04-04T13:42:22.546Z,10.56
2019-04-04T13:44:48.318Z,10.53
2019-04-04T13:47:14.059Z,10.42
2019-04-04T13:49:39.752Z,10.39
2019-04-04T13:52:05.538Z,10.41
2019-04-04T13:54:31.520Z,10.25
2019-04-04T13:56:57.512Z,10.34
2019-04-04T13:59:23.639Z,10.40
2019-04-04T14:01:49.648Z,10.54
2019-04-04T14:04:15.555Z,10.61
2019-04-04T14:06:41.340Z,10.74
2019-04-04T14:09:07.651Z,10.73
2019-04-04T14:11:33.596Z,10.44
2019-04-04T14:13:59.500Z,10.35
2019-04-04T14:16:25.453Z,10.41
2019-04-04T14:18:51.325Z,10.23
2019-04-04T14:21:17.146Z,10.03
2019-04-04T14:23:45.259Z,9.78
2019-04-04T14:26:10.887Z,9.52
2019-04-04T14:28:36.827Z,9.71
2019-04-04T14:31:02.733Z,9.49
2019-04-04T14:33:28.637Z,9.50
2019-04-04T14:35:54.415Z,9.51
2019-04-04T14:38:20.271Z,9.50
2019-04-04T14:40:46.201Z,9.67
2019-04-04T14:43:12.022Z,9.70
2019-04-04T14:45:37.924Z,9.78
2019-04-04T14:48:03.849Z,9.81
2019-04-04T14:50:31.655Z,9.88
2019-04-04T14:52:57.701Z,9.33
2019-04-04T14:55:23.668Z,9.46
2019-04-04T14:57:49.443Z,9.34
2019-04-04T15:00:20.322Z,9.03
2019-04-04T15:02:46.210Z,9.07
2019-04-04T15:05:12.178Z,8.84
2019-04-04T15:07:38.122Z,9.00
2019-04-04T15:10:04.639Z,8.98
2019-04-04T15:12:30.677Z,9.00
2019-04-04T15:14:56.617Z,9.18
2019-04-04T15:17:22.452Z,9.12
2019-04-04T15:19:48.510Z,9.01
2019-04-04T15:22:14.405Z,9.23
2019-04-04T15:24:40.074Z,9.22
2019-04-04T15:27:05.882Z,9.13
2019-04-04T15:29:31.653Z,8.86
2019-04-04T15:31:57.389Z,9.44
2019-04-04T15:34:23.225Z,9.27
2019-04-04T15:36:49.104Z,8.97
2019-04-04T15:39:16.071Z,8.84
2019-04-04T15:41:41.997Z,8.99
2019-04-04T15:44:07.974Z,9.12
2019-04-04T15:46:33.768Z,9.07
2019-04-04T15:48:59.532Z,9.15
2019-04-04T15:51:25.457Z,9.29
2019-04-04T15:53:51.305Z,9.02
2019-04-04T15:56:17.120Z,9.05
2019-04-04T15:58:43.081Z,9.11
2019-04-04T16:01:08.920Z,9.17
2019-04-04T16:03:34.762Z,9.12
2019-04-04T16:06:00.676Z,9.11
2019-04-04T16:08:26.569Z,8.98
2019-04-04T16:10:52.346Z,9.17
2019-04-04T16:13:18.396Z,9.07
2019-04-04T16:15:44.205Z,8.95
2019-04-04T16:18:10.074Z,8.91
2019-04-04T16:20:36.109Z,8.83
2019-04-04T16:23:02.099Z,8.73
2019-04-04T16:25:27.943Z,8.77
2019-04-04T16:27:53.965Z,8.91
2019-04-04T16:30:19.888Z,8.93
2019-04-04T16:32:45.661Z,8.95
2019-04-04T16:35:11.483Z,9.09
2019-04-04T16:37:37.200Z,9.01
2019-04-04T16:40:09.211Z,9.08
2019-04-04T16:42:32.619Z,9.08
2019-04-04T16:44:58.445Z,9.06
2019-04-04T16:47:24.373Z,8.95
2019-04-04T16:49:50.346Z,9.05
2019-04-04T16:52:16.173Z,9.15
2019-04-04T16:54:42.044Z,9.06
2019-04-04T16:57:07.931Z,9.09
2019-04-04T16:59:33.663Z,9.19
2019-04-04T17:01:59.515Z,9.12
2019-04-04T17:04:25.346Z,9.21
2019-04-04T17:06:51.164Z,9.26
2019-04-04T17:09:17.027Z,9.20
2019-04-04T17:11:42.847Z,9.01
2019-04-04T17:14:08.727Z,9.16
2019-04-04T17:16:34.662Z,9.12
2019-04-04T17:19:00.515Z,9.17
2019-04-04T17:21:26.506Z,9.17
2019-04-04T17:23:52.290Z,9.10
2019-04-04T17:26:19.186Z,8.95
2019-04-04T17:28:45.606Z,9.11
2019-04-04T17:31:11.500Z,9.14
2019-04-04T17:33:37.310Z,9.09
2019-04-04T17:36:03.600Z,9.06
2019-04-04T17:38:29.609Z,9.11
2019-04-04T17:40:55.504Z,8.82
2019-04-04T17:43:21.370Z,8.91
2019-04-04T17:45:47.185Z,8.83
2019-04-04T17:48:13.097Z,8.78
2019-04-04T17:50:39.149Z,8.71
2019-04-04T17:53:05.415Z,8.69
2019-04-04T17:55:31.181Z,8.88
2019-04-04T17:57:58.345Z,8.99
2019-04-04T18:00:25.082Z,8.80
2019-04-04T18:02:50.900Z,8.65
2019-04-04T18:05:16.939Z,8.64
2019-04-04T18:07:42.767Z,8.44
2019-04-04T18:10:08.931Z,8.36
2019-04-04T18:12:40.275Z,8.36
2019-04-04T18:15:03.873Z,8.30
2019-04-04T18:17:29.878Z,8.03
2019-04-04T18:19:55.595Z,8.03
2019-04-04T18:22:21.455Z,8.03
2019-04-04T18:24:47.461Z,7.83
2019-04-04T18:27:13.313Z,7.94
2019-04-04T18:29:39.129Z,8.00
2019-04-04T18:32:05.090Z,8.12
2019-04-04T18:34:31.342Z,8.09
2019-04-04T18:36:57.523Z,8.00
2019-04-04T18:39:23.379Z,8.22
2019-04-04T18:41:49.232Z,7.95
2019-04-04T18:44:15.421Z,7.88
2019-04-04T18:46:41.261Z,7.97
2019-04-04T18:49:07.158Z,7.65
2019-04-04T18:51:33.127Z,7.80
2019-04-04T18:53:58.866Z,7.71
2019-04-04T18:56:24.955Z,7.67
2019-04-04T18:58:50.758Z,7.85
2019-04-04T19:01:16.603Z,7.81
2019-04-04T19:03:42.450Z,7.85
2019-04-04T19:06:08.422Z,8.02
2019-04-04T19:08:34.367Z,8.09
2019-04-04T19:11:00.176Z,7.84
2019-04-04T19:13:26.219Z,8.04
2019-04-04T19:15:52.325Z,8.00
2019-04-04T19:18:18.254Z,7.84
2019-04-04T19:20:44.137Z,8.06
2019-04-04T19:23:13.993Z,8.08
2019-04-04T19:25:40.967Z,7.98
2019-04-04T19:28:06.877Z,8.06
2019-04-04T19:30:33.889Z,8.05
2019-04-04T19:32:59.796Z,8.22
2019-04-04T19:35:28.078Z,8.16
2019-04-04T19:37:59.916Z,8.18
2019-04-04T19:40:21.712Z,8.30
2019-04-04T19:42:47.681Z,8.27
2019-04-04T19:45:14.028Z,8.37
2019-04-04T19:47:39.961Z,8.34
2019-04-04T19:50:09.866Z,8.37
2019-04-04T19:52:35.854Z,8.37
2019-04-04T19:55:01.893Z,8.48
2019-04-04T19:57:28.539Z,8.40
2019-04-04T19:59:54.509Z,8.56
2019-04-04T20:02:20.752Z,8.58
2019-04-04T20:04:46.736Z,8.58
2019-04-04T20:07:12.658Z,8.49
2019-04-04T20:09:38.645Z,8.42
2019-04-04T20:12:05.677Z,8.47
2019-04-04T20:14:31.605Z,8.39
2019-04-04T20:16:57.588Z,8.43
2019-04-04T20:19:23.632Z,8.43
2019-04-04T20:21:49.561Z,8.43
2019-04-04T20:24:15.527Z,8.31
2019-04-04T20:26:41.565Z,8.35
2019-04-04T20:29:09.006Z,8.41
2019-04-04T20:31:34.943Z,8.49
2019-04-04T20:34:03.223Z,8.48
2019-04-04T20:36:28.871Z,8.50
2019-04-04T20:38:54.723Z,8.50
2019-04-04T20:41:20.782Z,8.57
2019-04-04T20:43:46.699Z,8.67
2019-04-04T20:46:14.558Z,8.52
2019-04-04T20:48:40.495Z,8.59
2019-04-04T20:51:06.724Z,8.65
2019-04-04T20:53:36.282Z,8.60
2019-04-04T20:56:02.208Z,8.58
2019-04-04T20:58:28.179Z,8.69
2019-04-04T21:00:53.997Z,8.75
2019-04-04T21:03:19.949Z,8.63
2019-04-04T21:05:45.895Z,8.67
2019-04-04T21:08:11.674Z,8.73
2019-04-04T21:10:37.439Z,8.71
2019-04-04T21:13:03.369Z,8.69
2019-04-04T21:15:29.187Z,8.63
2019-04-04T21:17:55.014Z,8.30
2019-04-04T21:20:20.729Z,8.17
2019-04-04T21:22:46.467Z,8.06
2019-04-04T21:25:12.321Z,8.00
2019-04-04T21:27:38.040Z,7.96
2019-04-04T21:30:07.442Z,7.86
2019-04-04T21:32:33.268Z,7.94
2019-04-04T21:34:59.158Z,7.94
2019-04-04T21:37:24.982Z,7.87
2019-04-04T21:39:50.806Z,7.88
2019-04-04T21:42:16.592Z,8.16
2019-04-04T21:44:42.374Z,8.16
2019-04-04T21:47:08.192Z,8.10
2019-04-04T21:49:34.017Z,7.94
2019-04-04T21:52:00.058Z,7.77
2019-04-04T21:54:25.975Z,7.72
2019-04-04T21:56:51.786Z,7.58
2019-04-04T21:59:17.744Z,7.53
2019-04-04T22:01:43.663Z,7.52
2019-04-04T22:04:46.998Z,7.58
2019-04-04T22:07:12.958Z,7.63
2019-04-04T22:09:38.887Z,7.56
2019-04-04T22:12:04.863Z,7.62
2019-04-04T22:14:30.764Z,7.64
2019-04-04T22:16:56.678Z,7.60
2019-04-04T22:19:22.576Z,7.62
2019-04-04T22:21:48.462Z,7.57
2019-04-04T22:24:14.271Z,7.73
2019-04-04T22:26:40.171Z,7.68
2019-04-04T22:29:05.877Z,7.70
2019-04-04T22:31:31.572Z,7.75
2019-04-04T22:33:57.284Z,7.87
2019-04-04T22:36:23.072Z,7.87
2019-04-04T22:38:48.928Z,7.83
2019-04-04T22:41:14.647Z,7.85
2019-04-04T22:43:40.428Z,7.92
2019-04-04T22:46:06.268Z,8.03
2019-04-04T22:48:31.975Z,7.95
2019-04-04T22:50:57.645Z,8.12
2019-04-04T22:53:23.434Z,8.10
2019-04-04T22:55:49.253Z,8.20
2019-04-04T22:58:27.360Z,8.27
2019-04-04T23:00:42.782Z,8.35
2019-04-04T23:03:08.547Z,8.27
2019-04-04T23:05:34.273Z,8.21
2019-04-04T23:07:59.972Z,8.25
2019-04-04T23:10:25.639Z,8.25
2019-04-04T23:12:51.307Z,8.33
2019-04-04T23:15:17.045Z,8.17
2019-04-04T23:17:45.370Z,8.29
2019-04-04T23:20:10.548Z,8.29
2019-04-04T23:22:36.325Z,8.43
2019-04-04T23:25:03.029Z,8.36
2019-04-04T23:27:28.707Z,8.14
2019-04-04T23:29:54.660Z,8.10
2019-04-04T23:32:20.427Z,8.22
2019-04-04T23:34:46.123Z,8.28
2019-04-04T23:37:11.933Z,8.25
2019-04-04T23:39:37.727Z,8.22
2019-04-04T23:42:03.416Z,8.29
2019-04-04T23:44:29.229Z,8.29
2019-04-04T23:46:54.944Z,8.36
2019-04-04T23:49:20.719Z,8.18
2019-04-04T23:51:46.627Z,8.18
2019-04-04T23:54:12.322Z,8.13
2019-04-04T23:56:38.538Z,8.20
2019-04-04T23:59:04.313Z,8.17
